Right Hand of Devil

Alter: 38 Jahre
Land: Österreich
Schnopser seit: 24.11.2016
Fairness Rating: 100%
Gespielte Bummerl: 2878
Davon gewonnen: 1528
Siegesrate: 53%
ELO: 1311

Turnierteilnahmen

Bisher noch kein Turnier gespielt


Die letzten 25 gespielten Bummerl

Zeit Gegner Ergebnis Ende Credits Elo
20:38:14 am 15.10.2018 Herby 7:0 normal 500 1311 (13)
19:23:18 am 15.10.2018 oma 7:6 normal 500 1298 (9)
18:55:29 am 15.10.2018 angel1570 5:7 normal - 1289 (-13)
18:46:46 am 15.10.2018 MG09 8:0 normal - 1302 (14)
18:44:40 am 15.10.2018 SM-N950F 8:5 normal - 1288 (10)
18:28:50 am 15.10.2018 Engelbert Pöttler 3:7 normal - 1278 (-10)
18:25:09 am 15.10.2018 józsi Isaszeg 7:0 normal - 1288 (12)
21:19:39 am 14.10.2018 Bauxi 7:4 normal 200 1276 (9)
21:13:57 am 14.10.2018 *Hardcoremichi 9:3 autocont-normal 100 1267 (5)
21:29:33 am 13.10.2018 zdravko 5:8 normal -200 1262 (-10)
13:25:41 am 13.10.2018 Herta1 9:5 normal 100 1272 (8)
13:21:12 am 13.10.2018 joker 3:8 normal -200 1264 (-11)
07:27:22 am 13.10.2018 Szabó Klára 0:9 normal - 1275 (-24)
20:25:14 am 12.10.2018 Odyho 5:8 normal - 1299 (-11)
20:16:45 am 12.10.2018 iPhone von gestern 8:1 normal - 1310 (6)
20:15:12 am 12.10.2018 Bob 7:0 normal - 1304 (16)
20:13:04 am 12.10.2018 *Colonel Hathi 6:7 autocont-normal - 1288 (-11)
19:25:27 am 12.10.2018 pepe05 9:1 normal - 1299 (9)
19:23:26 am 12.10.2018 Spacetiger 7:0 normal - 1290 (12)
18:51:02 am 12.10.2018 Hiasl 7:0 normal - 1278 (14)
18:36:14 am 12.10.2018 erne 7:2 normal - 1264 (9)
20:23:16 am 09.10.2018 Erli 8:0 normal 200 1255 (15)
19:07:13 am 09.10.2018 Werner Knauss 8:4 normal - 1240 (6)
19:03:08 am 09.10.2018 Hr. Werner 7:4 normal - 1234 (11)
19:00:06 am 09.10.2018 Nur Patienten 4:7 normal - 1223 (-9)